sensor_id;sensor_type;location;lat;lon;timestamp;temperature;humidity
11229;DHT22;5671;47.936;8.716;2022-12-07T00:00:18;0.40;91.20
11229;DHT22;5671;47.936;8.716;2022-12-07T00:02:45;0.40;91.20
11229;DHT22;5671;47.936;8.716;2022-12-07T00:05:13;0.40;91.20
11229;DHT22;5671;47.936;8.716;2022-12-07T00:07:40;0.40;91.20
11229;DHT22;5671;47.936;8.716;2022-12-07T00:10:08;0.40;91.00
11229;DHT22;5671;47.936;8.716;2022-12-07T00:12:35;0.40;90.90
11229;DHT22;5671;47.936;8.716;2022-12-07T00:15:03;0.40;90.90
11229;DHT22;5671;47.936;8.716;2022-12-07T00:17:30;0.40;91.10
11229;DHT22;5671;47.936;8.716;2022-12-07T00:19:57;0.40;91.10
11229;DHT22;5671;47.936;8.716;2022-12-07T00:22:25;0.40;91.20
11229;DHT22;5671;47.936;8.716;2022-12-07T00:24:52;0.50;91.10
11229;DHT22;5671;47.936;8.716;2022-12-07T00:27:19;0.40;91.20
11229;DHT22;5671;47.936;8.716;2022-12-07T00:29:45;0.50;91.30
11229;DHT22;5671;47.936;8.716;2022-12-07T00:32:12;0.40;91.40
11229;DHT22;5671;47.936;8.716;2022-12-07T00:34:39;0.40;91.50
11229;DHT22;5671;47.936;8.716;2022-12-07T00:37:06;0.40;91.50
11229;DHT22;5671;47.936;8.716;2022-12-07T00:39:34;0.40;91.50
11229;DHT22;5671;47.936;8.716;2022-12-07T00:42:01;0.40;91.50
11229;DHT22;5671;47.936;8.716;2022-12-07T00:44:28;0.40;91.60
11229;DHT22;5671;47.936;8.716;2022-12-07T00:46:55;0.40;91.50
11229;DHT22;5671;47.936;8.716;2022-12-07T00:49:22;0.40;91.40
11229;DHT22;5671;47.936;8.716;2022-12-07T00:51:49;0.40;91.40
11229;DHT22;5671;47.936;8.716;2022-12-07T00:54:16;0.40;91.40
11229;DHT22;5671;47.936;8.716;2022-12-07T00:56:44;0.40;91.30
11229;DHT22;5671;47.936;8.716;2022-12-07T00:59:12;0.40;91.10
11229;DHT22;5671;47.936;8.716;2022-12-07T01:01:40;0.50;91.10
11229;DHT22;5671;47.936;8.716;2022-12-07T01:04:08;0.50;91.20
11229;DHT22;5671;47.936;8.716;2022-12-07T01:06:34;0.40;91.40
11229;DHT22;5671;47.936;8.716;2022-12-07T01:09:02;0.50;91.30
11229;DHT22;5671;47.936;8.716;2022-12-07T01:11:30;0.50;91.20
11229;DHT22;5671;47.936;8.716;2022-12-07T01:14:00;0.50;91.20
11229;DHT22;5671;47.936;8.716;2022-12-07T01:16:29;0.50;91.30
11229;DHT22;5671;47.936;8.716;2022-12-07T01:18:57;0.50;91.60
11229;DHT22;5671;47.936;8.716;2022-12-07T01:21:25;0.50;91.50
11229;DHT22;5671;47.936;8.716;2022-12-07T01:23:53;0.50;91.70
11229;DHT22;5671;47.936;8.716;2022-12-07T01:26:22;0.50;91.60
11229;DHT22;5671;47.936;8.716;2022-12-07T01:28:50;0.50;91.60
11229;DHT22;5671;47.936;8.716;2022-12-07T01:31:20;0.50;91.60
11229;DHT22;5671;47.936;8.716;2022-12-07T01:33:49;0.50;91.80
11229;DHT22;5671;47.936;8.716;2022-12-07T01:36:17;0.60;91.70
11229;DHT22;5671;47.936;8.716;2022-12-07T01:38:46;0.60;91.70
11229;DHT22;5671;47.936;8.716;2022-12-07T01:41:15;0.60;91.80
11229;DHT22;5671;47.936;8.716;2022-12-07T01:46:53;0.60;91.80
11229;DHT22;5671;47.936;8.716;2022-12-07T01:49:29;0.60;91.70
11229;DHT22;5671;47.936;8.716;2022-12-07T01:52:03;0.60;91.80
11229;DHT22;5671;47.936;8.716;2022-12-07T01:54:33;0.60;91.80
11229;DHT22;5671;47.936;8.716;2022-12-07T01:57:01;0.60;91.80
11229;DHT22;5671;47.936;8.716;2022-12-07T01:59:29;0.60;91.80
11229;DHT22;5671;47.936;8.716;2022-12-07T02:01:57;0.60;91.70
11229;DHT22;5671;47.936;8.716;2022-12-07T02:04:24;0.60;91.70
11229;DHT22;5671;47.936;8.716;2022-12-07T02:06:52;0.60;91.60
11229;DHT22;5671;47.936;8.716;2022-12-07T02:09:20;0.60;91.60
11229;DHT22;5671;47.936;8.716;2022-12-07T02:11:47;0.60;91.60
11229;DHT22;5671;47.936;8.716;2022-12-07T02:14:14;0.60;91.40
11229;DHT22;5671;47.936;8.716;2022-12-07T02:16:50;0.70;91.30
11229;DHT22;5671;47.936;8.716;2022-12-07T02:22:42;0.70;91.30
11229;DHT22;5671;47.936;8.716;2022-12-07T02:25:19;0.70;91.20
11229;DHT22;5671;47.936;8.716;2022-12-07T02:27:52;0.70;91.40
11229;DHT22;5671;47.936;8.716;2022-12-07T02:30:26;0.70;91.30
11229;DHT22;5671;47.936;8.716;2022-12-07T02:32:58;0.70;91.20
11229;DHT22;5671;47.936;8.716;2022-12-07T02:35:30;0.70;91.30
11229;DHT22;5671;47.936;8.716;2022-12-07T02:38:02;0.70;91.30
11229;DHT22;5671;47.936;8.716;2022-12-07T02:40:34;0.70;91.30
11229;DHT22;5671;47.936;8.716;2022-12-07T02:43:06;0.70;91.30
11229;DHT22;5671;47.936;8.716;2022-12-07T02:45:39;0.70;91.20
11229;DHT22;5671;47.936;8.716;2022-12-07T02:48:09;0.70;91.30
11229;DHT22;5671;47.936;8.716;2022-12-07T02:50:37;0.70;91.30
11229;DHT22;5671;47.936;8.716;2022-12-07T02:53:04;0.70;91.30
11229;DHT22;5671;47.936;8.716;2022-12-07T02:55:35;0.70;91.30
11229;DHT22;5671;47.936;8.716;2022-12-07T02:58:20;0.70;91.10
11229;DHT22;5671;47.936;8.716;2022-12-07T03:01:02;0.70;91.00
11229;DHT22;5671;47.936;8.716;2022-12-07T03:03:33;0.70;90.90
11229;DHT22;5671;47.936;8.716;2022-12-07T03:06:11;0.70;90.90
11229;DHT22;5671;47.936;8.716;2022-12-07T03:08:52;0.70;90.90
11229;DHT22;5671;47.936;8.716;2022-12-07T03:11:25;0.70;90.80
11229;DHT22;5671;47.936;8.716;2022-12-07T03:14:00;0.70;90.90
11229;DHT22;5671;47.936;8.716;2022-12-07T03:16:33;0.70;90.90
11229;DHT22;5671;47.936;8.716;2022-12-07T03:19:04;0.70;91.10
11229;DHT22;5671;47.936;8.716;2022-12-07T03:21:35;0.70;91.00
11229;DHT22;5671;47.936;8.716;2022-12-07T03:24:08;0.70;90.90
11229;DHT22;5671;47.936;8.716;2022-12-07T03:26:39;0.70;90.90
11229;DHT22;5671;47.936;8.716;2022-12-07T03:29:11;0.70;90.90
11229;DHT22;5671;47.936;8.716;2022-12-07T03:31:43;0.70;90.90
11229;DHT22;5671;47.936;8.716;2022-12-07T03:34:16;0.70;90.90
11229;DHT22;5671;47.936;8.716;2022-12-07T03:36:47;0.70;90.80
11229;DHT22;5671;47.936;8.716;2022-12-07T03:39:21;0.70;90.80
11229;DHT22;5671;47.936;8.716;2022-12-07T03:41:49;0.70;90.70
11229;DHT22;5671;47.936;8.716;2022-12-07T03:44:17;0.70;90.70
11229;DHT22;5671;47.936;8.716;2022-12-07T03:46:50;0.70;90.40
11229;DHT22;5671;47.936;8.716;2022-12-07T03:49:25;0.70;90.10
11229;DHT22;5671;47.936;8.716;2022-12-07T03:51:56;0.70;90.00
11229;DHT22;5671;47.936;8.716;2022-12-07T03:54:28;0.70;90.00
11229;DHT22;5671;47.936;8.716;2022-12-07T03:56:57;0.70;90.20
11229;DHT22;5671;47.936;8.716;2022-12-07T03:59:25;0.70;90.20
11229;DHT22;5671;47.936;8.716;2022-12-07T04:01:56;0.70;90.20
11229;DHT22;5671;47.936;8.716;2022-12-07T04:04:24;0.70;90.10
11229;DHT22;5671;47.936;8.716;2022-12-07T04:06:51;0.70;90.10
11229;DHT22;5671;47.936;8.716;2022-12-07T04:09:18;0.70;90.20
11229;DHT22;5671;47.936;8.716;2022-12-07T04:11:45;0.70;90.40
11229;DHT22;5671;47.936;8.716;2022-12-07T04:14:12;0.70;90.40
11229;DHT22;5671;47.936;8.716;2022-12-07T04:16:45;0.70;90.20
11229;DHT22;5671;47.936;8.716;2022-12-07T04:19:13;0.70;90.10
11229;DHT22;5671;47.936;8.716;2022-12-07T04:21:42;0.70;90.10
11229;DHT22;5671;47.936;8.716;2022-12-07T04:24:09;0.70;90.10
11229;DHT22;5671;47.936;8.716;2022-12-07T04:26:36;0.70;89.90
11229;DHT22;5671;47.936;8.716;2022-12-07T04:29:03;0.70;89.90
11229;DHT22;5671;47.936;8.716;2022-12-07T04:31:29;0.70;89.90
11229;DHT22;5671;47.936;8.716;2022-12-07T04:33:56;0.70;89.90
11229;DHT22;5671;47.936;8.716;2022-12-07T04:36:25;0.70;89.90
11229;DHT22;5671;47.936;8.716;2022-12-07T04:38:53;0.70;89.70
11229;DHT22;5671;47.936;8.716;2022-12-07T04:41:21;0.70;89.70
11229;DHT22;5671;47.936;8.716;2022-12-07T04:43:53;0.70;89.80
11229;DHT22;5671;47.936;8.716;2022-12-07T04:46:20;0.70;89.90
11229;DHT22;5671;47.936;8.716;2022-12-07T04:48:47;0.70;90.10
11229;DHT22;5671;47.936;8.716;2022-12-07T04:51:16;0.70;90.00
11229;DHT22;5671;47.936;8.716;2022-12-07T04:53:46;0.60;90.10
11229;DHT22;5671;47.936;8.716;2022-12-07T04:56:14;0.60;90.10
11229;DHT22;5671;47.936;8.716;2022-12-07T04:58:41;0.70;90.00
11229;DHT22;5671;47.936;8.716;2022-12-07T05:01:09;0.60;90.00
11229;DHT22;5671;47.936;8.716;2022-12-07T05:03:36;0.60;90.00
11229;DHT22;5671;47.936;8.716;2022-12-07T05:06:04;0.60;90.00
11229;DHT22;5671;47.936;8.716;2022-12-07T05:08:32;0.60;90.00
11229;DHT22;5671;47.936;8.716;2022-12-07T05:11:01;0.60;90.00
11229;DHT22;5671;47.936;8.716;2022-12-07T05:13:28;0.60;90.10
11229;DHT22;5671;47.936;8.716;2022-12-07T05:15:54;0.60;89.80
11229;DHT22;5671;47.936;8.716;2022-12-07T05:18:21;0.60;90.00
11229;DHT22;5671;47.936;8.716;2022-12-07T05:20:52;0.60;89.80
11229;DHT22;5671;47.936;8.716;2022-12-07T05:23:19;0.60;89.60
11229;DHT22;5671;47.936;8.716;2022-12-07T05:25:46;0.60;89.60
11229;DHT22;5671;47.936;8.716;2022-12-07T05:28:14;0.60;89.60
11229;DHT22;5671;47.936;8.716;2022-12-07T05:30:41;0.60;89.60
11229;DHT22;5671;47.936;8.716;2022-12-07T05:33:08;0.60;89.50
11229;DHT22;5671;47.936;8.716;2022-12-07T05:35:35;0.60;89.40
11229;DHT22;5671;47.936;8.716;2022-12-07T05:38:03;0.60;89.30
11229;DHT22;5671;47.936;8.716;2022-12-07T05:40:30;0.60;89.20
11229;DHT22;5671;47.936;8.716;2022-12-07T05:42:57;0.60;89.20
11229;DHT22;5671;47.936;8.716;2022-12-07T05:45:25;0.60;89.10
11229;DHT22;5671;47.936;8.716;2022-12-07T05:47:52;0.60;89.20
11229;DHT22;5671;47.936;8.716;2022-12-07T05:50:19;0.60;88.90
11229;DHT22;5671;47.936;8.716;2022-12-07T05:52:45;0.60;88.80
11229;DHT22;5671;47.936;8.716;2022-12-07T05:55:12;0.50;88.50
11229;DHT22;5671;47.936;8.716;2022-12-07T05:57:39;0.60;88.60
11229;DHT22;5671;47.936;8.716;2022-12-07T06:00:28;0.50;88.20
11229;DHT22;5671;47.936;8.716;2022-12-07T06:02:53;0.50;87.70
11229;DHT22;5671;47.936;8.716;2022-12-07T06:05:20;0.50;87.80
11229;DHT22;5671;47.936;8.716;2022-12-07T06:07:47;0.50;87.30
11229;DHT22;5671;47.936;8.716;2022-12-07T06:10:14;0.50;87.80
11229;DHT22;5671;47.936;8.716;2022-12-07T06:12:41;0.40;87.60
11229;DHT22;5671;47.936;8.716;2022-12-07T06:15:09;0.50;87.50
11229;DHT22;5671;47.936;8.716;2022-12-07T06:17:39;0.40;87.50
11229;DHT22;5671;47.936;8.716;2022-12-07T06:20:07;0.40;87.70
11229;DHT22;5671;47.936;8.716;2022-12-07T06:22:34;0.40;87.40
11229;DHT22;5671;47.936;8.716;2022-12-07T06:25:01;0.40;87.40
11229;DHT22;5671;47.936;8.716;2022-12-07T06:27:29;0.30;87.20
11229;DHT22;5671;47.936;8.716;2022-12-07T06:29:58;0.30;87.30
11229;DHT22;5671;47.936;8.716;2022-12-07T06:32:25;0.30;87.70
11229;DHT22;5671;47.936;8.716;2022-12-07T06:34:53;0.30;87.60
11229;DHT22;5671;47.936;8.716;2022-12-07T06:37:20;0.20;87.40
11229;DHT22;5671;47.936;8.716;2022-12-07T06:39:47;0.20;87.40
11229;DHT22;5671;47.936;8.716;2022-12-07T06:42:14;0.20;87.40
11229;DHT22;5671;47.936;8.716;2022-12-07T06:44:41;0.10;87.50
11229;DHT22;5671;47.936;8.716;2022-12-07T06:47:09;0.10;87.50
11229;DHT22;5671;47.936;8.716;2022-12-07T06:49:37;0.10;87.60
11229;DHT22;5671;47.936;8.716;2022-12-07T06:52:05;0.00;87.70
11229;DHT22;5671;47.936;8.716;2022-12-07T06:54:32;0.00;87.70
11229;DHT22;5671;47.936;8.716;2022-12-07T06:56:59;0.00;87.80
11229;DHT22;5671;47.936;8.716;2022-12-07T06:59:26;0.00;87.80
11229;DHT22;5671;47.936;8.716;2022-12-07T07:01:52;0.00;88.00
11229;DHT22;5671;47.936;8.716;2022-12-07T07:04:19;-0.10;88.00
11229;DHT22;5671;47.936;8.716;2022-12-07T07:06:46;-0.10;88.10
11229;DHT22;5671;47.936;8.716;2022-12-07T07:09:14;-0.10;88.40
11229;DHT22;5671;47.936;8.716;2022-12-07T07:11:41;-0.20;88.50
11229;DHT22;5671;47.936;8.716;2022-12-07T07:14:08;-0.20;88.50
11229;DHT22;5671;47.936;8.716;2022-12-07T07:16:35;-0.20;88.60
11229;DHT22;5671;47.936;8.716;2022-12-07T07:19:02;-0.20;88.80
11229;DHT22;5671;47.936;8.716;2022-12-07T07:21:29;-0.20;88.70
11229;DHT22;5671;47.936;8.716;2022-12-07T07:23:56;-0.20;88.80
11229;DHT22;5671;47.936;8.716;2022-12-07T07:26:24;-0.20;88.80
11229;DHT22;5671;47.936;8.716;2022-12-07T07:28:51;-0.20;88.70
11229;DHT22;5671;47.936;8.716;2022-12-07T07:31:18;-0.20;88.60
11229;DHT22;5671;47.936;8.716;2022-12-07T07:33:45;-0.20;88.70
11229;DHT22;5671;47.936;8.716;2022-12-07T07:36:12;-0.20;88.80
11229;DHT22;5671;47.936;8.716;2022-12-07T07:38:39;-0.30;88.80
11229;DHT22;5671;47.936;8.716;2022-12-07T07:41:05;-0.20;88.70
11229;DHT22;5671;47.936;8.716;2022-12-07T07:43:34;-0.20;88.80
11229;DHT22;5671;47.936;8.716;2022-12-07T07:46:01;-0.30;88.70
11229;DHT22;5671;47.936;8.716;2022-12-07T07:48:28;-0.30;88.70
11229;DHT22;5671;47.936;8.716;2022-12-07T07:50:54;-0.30;88.60
11229;DHT22;5671;47.936;8.716;2022-12-07T07:53:21;-0.30;88.60
11229;DHT22;5671;47.936;8.716;2022-12-07T07:55:52;-0.30;88.80
11229;DHT22;5671;47.936;8.716;2022-12-07T07:58:19;-0.30;88.80
11229;DHT22;5671;47.936;8.716;2022-12-07T08:00:48;-0.30;88.90
11229;DHT22;5671;47.936;8.716;2022-12-07T08:03:17;-0.30;89.10
11229;DHT22;5671;47.936;8.716;2022-12-07T08:05:44;-0.30;89.30
11229;DHT22;5671;47.936;8.716;2022-12-07T08:08:11;-0.20;89.40
11229;DHT22;5671;47.936;8.716;2022-12-07T08:10:39;-0.20;89.30
11229;DHT22;5671;47.936;8.716;2022-12-07T08:13:06;-0.20;89.30
11229;DHT22;5671;47.936;8.716;2022-12-07T08:15:40;-0.20;89.20
11229;DHT22;5671;47.936;8.716;2022-12-07T08:18:09;-0.20;89.00
11229;DHT22;5671;47.936;8.716;2022-12-07T08:20:37;-0.10;89.00
11229;DHT22;5671;47.936;8.716;2022-12-07T08:23:07;-0.10;89.00
11229;DHT22;5671;47.936;8.716;2022-12-07T08:25:44;-0.10;88.50
11229;DHT22;5671;47.936;8.716;2022-12-07T08:28:11;-0.10;88.40
11229;DHT22;5671;47.936;8.716;2022-12-07T08:30:38;0.00;88.30
11229;DHT22;5671;47.936;8.716;2022-12-07T08:33:05;0.00;88.30
11229;DHT22;5671;47.936;8.716;2022-12-07T08:35:34;0.00;88.00
11229;DHT22;5671;47.936;8.716;2022-12-07T08:38:04;0.00;87.90
11229;DHT22;5671;47.936;8.716;2022-12-07T08:40:33;0.00;88.00
11229;DHT22;5671;47.936;8.716;2022-12-07T08:43:03;0.00;88.00
11229;DHT22;5671;47.936;8.716;2022-12-07T08:45:32;0.10;87.90
11229;DHT22;5671;47.936;8.716;2022-12-07T08:48:05;0.10;87.80
11229;DHT22;5671;47.936;8.716;2022-12-07T08:50:36;0.10;87.70
11229;DHT22;5671;47.936;8.716;2022-12-07T08:53:05;0.20;87.30
11229;DHT22;5671;47.936;8.716;2022-12-07T08:55:36;0.20;87.10
11229;DHT22;5671;47.936;8.716;2022-12-07T08:58:03;0.20;86.60
11229;DHT22;5671;47.936;8.716;2022-12-07T09:00:35;0.20;86.90
11229;DHT22;5671;47.936;8.716;2022-12-07T09:03:30;0.30;86.50
11229;DHT22;5671;47.936;8.716;2022-12-07T09:06:21;0.30;86.70
11229;DHT22;5671;47.936;8.716;2022-12-07T09:08:51;0.40;86.50
11229;DHT22;5671;47.936;8.716;2022-12-07T09:18:27;0.50;84.90
11229;DHT22;5671;47.936;8.716;2022-12-07T09:21:13;0.60;85.00
11229;DHT22;5671;47.936;8.716;2022-12-07T09:24:09;0.60;84.30
11229;DHT22;5671;47.936;8.716;2022-12-07T09:30:00;0.70;83.80
11229;DHT22;5671;47.936;8.716;2022-12-07T09:36:45;0.80;82.40
11229;DHT22;5671;47.936;8.716;2022-12-07T09:43:11;0.90;82.80
11229;DHT22;5671;47.936;8.716;2022-12-07T09:49:16;0.90;79.80
11229;DHT22;5671;47.936;8.716;2022-12-07T10:54:16;2.00;76.40
11229;DHT22;5671;47.936;8.716;2022-12-07T10:57:39;2.20;76.30
11229;DHT22;5671;47.936;8.716;2022-12-07T11:15:21;2.40;73.60
11229;DHT22;5671;47.936;8.716;2022-12-07T11:31:42;2.60;73.60
11229;DHT22;5671;47.936;8.716;2022-12-07T11:34:27;2.60;72.80
11229;DHT22;5671;47.936;8.716;2022-12-07T11:36:57;2.60;72.20
11229;DHT22;5671;47.936;8.716;2022-12-07T11:39:28;2.50;71.50
11229;DHT22;5671;47.936;8.716;2022-12-07T11:52:59;2.20;72.20
11229;DHT22;5671;47.936;8.716;2022-12-07T14:26:57;4.20;65.20
11229;DHT22;5671;47.936;8.716;2022-12-07T14:29:47;4.10;64.20
11229;DHT22;5671;47.936;8.716;2022-12-07T14:59:01;3.30;71.10
11229;DHT22;5671;47.936;8.716;2022-12-07T15:01:39;3.20;70.40
11229;DHT22;5671;47.936;8.716;2022-12-07T15:04:09;3.10;69.90
11229;DHT22;5671;47.936;8.716;2022-12-07T15:54:32;1.40;75.30
11229;DHT22;5671;47.936;8.716;2022-12-07T15:57:50;1.20;75.10
11229;DHT22;5671;47.936;8.716;2022-12-07T16:00:18;1.00;75.80
11229;DHT22;5671;47.936;8.716;2022-12-07T16:02:48;1.00;76.30
11229;DHT22;5671;47.936;8.716;2022-12-07T16:05:44;0.90;76.80
11229;DHT22;5671;47.936;8.716;2022-12-07T16:08:26;0.80;77.20
11229;DHT22;5671;47.936;8.716;2022-12-07T16:14:07;0.60;77.50
11229;DHT22;5671;47.936;8.716;2022-12-07T16:16:44;0.50;78.00
11229;DHT22;5671;47.936;8.716;2022-12-07T16:19:11;0.40;77.60
11229;DHT22;5671;47.936;8.716;2022-12-07T16:21:39;0.30;77.90
11229;DHT22;5671;47.936;8.716;2022-12-07T16:24:09;0.20;78.40
11229;DHT22;5671;47.936;8.716;2022-12-07T16:26:42;0.20;78.50
11229;DHT22;5671;47.936;8.716;2022-12-07T16:29:11;0.10;78.80
11229;DHT22;5671;47.936;8.716;2022-12-07T16:31:38;0.00;79.30
11229;DHT22;5671;47.936;8.716;2022-12-07T16:34:06;0.00;79.40
11229;DHT22;5671;47.936;8.716;2022-12-07T16:36:33;-0.10;79.70
11229;DHT22;5671;47.936;8.716;2022-12-07T16:39:01;-0.20;79.90
11229;DHT22;5671;47.936;8.716;2022-12-07T16:41:28;-0.20;79.90
11229;DHT22;5671;47.936;8.716;2022-12-07T16:43:56;-0.30;80.30
11229;DHT22;5671;47.936;8.716;2022-12-07T16:46:23;-0.40;80.60
11229;DHT22;5671;47.936;8.716;2022-12-07T16:48:50;-0.40;80.60
11229;DHT22;5671;47.936;8.716;2022-12-07T16:51:17;-0.50;80.70
11229;DHT22;5671;47.936;8.716;2022-12-07T16:53:44;-0.50;80.60
11229;DHT22;5671;47.936;8.716;2022-12-07T16:56:12;-0.60;80.60
11229;DHT22;5671;47.936;8.716;2022-12-07T16:58:40;-0.60;80.80
11229;DHT22;5671;47.936;8.716;2022-12-07T17:01:13;-0.70;80.80
11229;DHT22;5671;47.936;8.716;2022-12-07T17:03:41;-0.70;81.30
11229;DHT22;5671;47.936;8.716;2022-12-07T17:06:12;-0.80;80.80
11229;DHT22;5671;47.936;8.716;2022-12-07T17:08:40;-0.90;80.90
11229;DHT22;5671;47.936;8.716;2022-12-07T17:11:12;-0.90;81.40
11229;DHT22;5671;47.936;8.716;2022-12-07T17:13:40;-1.00;82.30
11229;DHT22;5671;47.936;8.716;2022-12-07T17:16:28;-1.00;82.50
11229;DHT22;5671;47.936;8.716;2022-12-07T17:18:55;-1.10;82.80
11229;DHT22;5671;47.936;8.716;2022-12-07T17:21:32;-1.10;82.30
11229;DHT22;5671;47.936;8.716;2022-12-07T17:24:03;-1.20;82.80
11229;DHT22;5671;47.936;8.716;2022-12-07T17:26:33;-1.20;83.00
11229;DHT22;5671;47.936;8.716;2022-12-07T17:29:03;-1.30;83.20
11229;DHT22;5671;47.936;8.716;2022-12-07T17:31:32;-1.40;82.60
11229;DHT22;5671;47.936;8.716;2022-12-07T17:33:58;-1.40;82.30
11229;DHT22;5671;47.936;8.716;2022-12-07T17:36:27;-1.50;82.40
11229;DHT22;5671;47.936;8.716;2022-12-07T17:38:55;-1.50;82.70
11229;DHT22;5671;47.936;8.716;2022-12-07T17:41:23;-1.50;83.30
11229;DHT22;5671;47.936;8.716;2022-12-07T17:44:08;-1.60;83.90
11229;DHT22;5671;47.936;8.716;2022-12-07T17:46:37;-1.70;84.10
11229;DHT22;5671;47.936;8.716;2022-12-07T17:49:05;-1.70;84.30
11229;DHT22;5671;47.936;8.716;2022-12-07T17:52:07;-1.70;84.40
11229;DHT22;5671;47.936;8.716;2022-12-07T17:54:52;-1.80;84.50
11229;DHT22;5671;47.936;8.716;2022-12-07T17:57:19;-1.80;84.40
11229;DHT22;5671;47.936;8.716;2022-12-07T17:59:46;-1.80;84.10
11229;DHT22;5671;47.936;8.716;2022-12-07T18:02:14;-1.90;84.50
11229;DHT22;5671;47.936;8.716;2022-12-07T18:04:41;-1.90;84.40
11229;DHT22;5671;47.936;8.716;2022-12-07T18:07:08;-1.90;85.20
11229;DHT22;5671;47.936;8.716;2022-12-07T18:09:35;-1.90;85.50
11229;DHT22;5671;47.936;8.716;2022-12-07T18:12:02;-1.90;85.40
11229;DHT22;5671;47.936;8.716;2022-12-07T18:14:29;-2.00;85.40
11229;DHT22;5671;47.936;8.716;2022-12-07T18:16:57;-1.90;85.40
11229;DHT22;5671;47.936;8.716;2022-12-07T18:19:25;-1.90;85.20
11229;DHT22;5671;47.936;8.716;2022-12-07T18:21:52;-1.90;85.00
11229;DHT22;5671;47.936;8.716;2022-12-07T18:24:19;-1.90;84.90
11229;DHT22;5671;47.936;8.716;2022-12-07T18:26:46;-1.90;85.60
11229;DHT22;5671;47.936;8.716;2022-12-07T18:29:14;-1.90;85.70
11229;DHT22;5671;47.936;8.716;2022-12-07T18:31:42;-1.90;85.60
11229;DHT22;5671;47.936;8.716;2022-12-07T18:34:12;-1.90;86.10
11229;DHT22;5671;47.936;8.716;2022-12-07T18:36:42;-1.90;85.90
11229;DHT22;5671;47.936;8.716;2022-12-07T18:39:11;-1.90;86.00
11229;DHT22;5671;47.936;8.716;2022-12-07T18:41:39;-1.90;85.90
11229;DHT22;5671;47.936;8.716;2022-12-07T18:44:06;-1.80;85.50
11229;DHT22;5671;47.936;8.716;2022-12-07T18:46:34;-1.80;85.70
11229;DHT22;5671;47.936;8.716;2022-12-07T18:49:03;-1.80;85.20
11229;DHT22;5671;47.936;8.716;2022-12-07T18:51:30;-1.80;85.30
11229;DHT22;5671;47.936;8.716;2022-12-07T18:53:58;-1.80;85.70
11229;DHT22;5671;47.936;8.716;2022-12-07T18:56:26;-1.90;85.80
11229;DHT22;5671;47.936;8.716;2022-12-07T18:58:54;-1.80;86.00
11229;DHT22;5671;47.936;8.716;2022-12-07T19:01:39;-1.80;86.50
11229;DHT22;5671;47.936;8.716;2022-12-07T19:04:09;-1.80;86.00
11229;DHT22;5671;47.936;8.716;2022-12-07T19:06:36;-1.80;85.90
11229;DHT22;5671;47.936;8.716;2022-12-07T19:09:06;-1.80;86.00
11229;DHT22;5671;47.936;8.716;2022-12-07T19:14:32;-1.80;85.50
11229;DHT22;5671;47.936;8.716;2022-12-07T19:17:00;-1.80;85.60
11229;DHT22;5671;47.936;8.716;2022-12-07T19:19:29;-1.80;85.50
11229;DHT22;5671;47.936;8.716;2022-12-07T19:21:57;-1.80;85.80
11229;DHT22;5671;47.936;8.716;2022-12-07T19:24:26;-1.80;85.80
11229;DHT22;5671;47.936;8.716;2022-12-07T19:26:53;-1.80;85.70
11229;DHT22;5671;47.936;8.716;2022-12-07T19:29:21;-1.80;85.60
11229;DHT22;5671;47.936;8.716;2022-12-07T19:31:47;-1.80;85.70
11229;DHT22;5671;47.936;8.716;2022-12-07T19:34:16;-1.80;85.30
11229;DHT22;5671;47.936;8.716;2022-12-07T19:36:44;-1.80;84.80
11229;DHT22;5671;47.936;8.716;2022-12-07T19:39:11;-1.90;84.60
11229;DHT22;5671;47.936;8.716;2022-12-07T19:41:40;-1.90;84.80
11229;DHT22;5671;47.936;8.716;2022-12-07T19:44:10;-1.90;84.90
11229;DHT22;5671;47.936;8.716;2022-12-07T19:46:38;-1.90;85.30
11229;DHT22;5671;47.936;8.716;2022-12-07T19:49:08;-2.00;85.60
11229;DHT22;5671;47.936;8.716;2022-12-07T19:51:35;-2.00;85.40
11229;DHT22;5671;47.936;8.716;2022-12-07T19:54:02;-2.00;85.40
11229;DHT22;5671;47.936;8.716;2022-12-07T19:56:32;-2.00;85.10
11229;DHT22;5671;47.936;8.716;2022-12-07T19:59:01;-2.10;85.30
11229;DHT22;5671;47.936;8.716;2022-12-07T20:01:28;-2.10;85.40
11229;DHT22;5671;47.936;8.716;2022-12-07T20:03:56;-2.10;85.70
11229;DHT22;5671;47.936;8.716;2022-12-07T20:06:23;-2.10;85.60
11229;DHT22;5671;47.936;8.716;2022-12-07T20:08:50;-2.10;85.60
11229;DHT22;5671;47.936;8.716;2022-12-07T20:11:18;-2.10;85.50
11229;DHT22;5671;47.936;8.716;2022-12-07T20:14:06;-2.10;85.50
11229;DHT22;5671;47.936;8.716;2022-12-07T20:16:34;-2.10;85.70
11229;DHT22;5671;47.936;8.716;2022-12-07T20:19:01;-2.10;86.00
11229;DHT22;5671;47.936;8.716;2022-12-07T20:21:28;-2.20;85.70
11229;DHT22;5671;47.936;8.716;2022-12-07T20:23:54;-2.20;85.80
11229;DHT22;5671;47.936;8.716;2022-12-07T20:26:21;-2.20;86.00
11229;DHT22;5671;47.936;8.716;2022-12-07T20:28:48;-2.20;86.70
11229;DHT22;5671;47.936;8.716;2022-12-07T20:31:16;-2.20;86.80
11229;DHT22;5671;47.936;8.716;2022-12-07T20:33:44;-2.20;86.90
11229;DHT22;5671;47.936;8.716;2022-12-07T20:36:13;-2.20;87.20
11229;DHT22;5671;47.936;8.716;2022-12-07T20:38:41;-2.20;87.10
11229;DHT22;5671;47.936;8.716;2022-12-07T20:41:10;-2.30;87.20
11229;DHT22;5671;47.936;8.716;2022-12-07T20:43:58;-2.30;87.10
11229;DHT22;5671;47.936;8.716;2022-12-07T20:46:26;-2.30;86.90
11229;DHT22;5671;47.936;8.716;2022-12-07T20:48:53;-2.30;87.10
11229;DHT22;5671;47.936;8.716;2022-12-07T20:51:20;-2.30;86.90
11229;DHT22;5671;47.936;8.716;2022-12-07T20:53:47;-2.30;87.10
11229;DHT22;5671;47.936;8.716;2022-12-07T20:56:18;-2.30;86.90
11229;DHT22;5671;47.936;8.716;2022-12-07T20:58:46;-2.30;86.60
11229;DHT22;5671;47.936;8.716;2022-12-07T21:01:13;-2.30;86.80
11229;DHT22;5671;47.936;8.716;2022-12-07T21:03:41;-2.40;86.70
11229;DHT22;5671;47.936;8.716;2022-12-07T21:06:11;-2.40;86.80
11229;DHT22;5671;47.936;8.716;2022-12-07T21:08:38;-2.40;86.90
11229;DHT22;5671;47.936;8.716;2022-12-07T21:11:10;-2.40;86.70
11229;DHT22;5671;47.936;8.716;2022-12-07T21:13:37;-2.50;86.90
11229;DHT22;5671;47.936;8.716;2022-12-07T21:16:08;-2.50;87.00
11229;DHT22;5671;47.936;8.716;2022-12-07T21:18:36;-2.50;87.10
11229;DHT22;5671;47.936;8.716;2022-12-07T21:21:05;-2.50;87.40
11229;DHT22;5671;47.936;8.716;2022-12-07T21:23:33;-2.50;87.30
11229;DHT22;5671;47.936;8.716;2022-12-07T21:26:07;-2.50;87.30
11229;DHT22;5671;47.936;8.716;2022-12-07T21:28:34;-2.50;87.10
11229;DHT22;5671;47.936;8.716;2022-12-07T21:31:00;-2.60;87.00
11229;DHT22;5671;47.936;8.716;2022-12-07T21:33:27;-2.50;86.80
11229;DHT22;5671;47.936;8.716;2022-12-07T21:35:56;-2.60;86.90
11229;DHT22;5671;47.936;8.716;2022-12-07T21:38:25;-2.60;87.00
11229;DHT22;5671;47.936;8.716;2022-12-07T21:40:51;-2.60;87.10
11229;DHT22;5671;47.936;8.716;2022-12-07T21:43:18;-2.60;87.30
11229;DHT22;5671;47.936;8.716;2022-12-07T21:45:49;-2.60;87.40
11229;DHT22;5671;47.936;8.716;2022-12-07T21:48:16;-2.60;87.30
11229;DHT22;5671;47.936;8.716;2022-12-07T21:50:43;-2.60;87.20
11229;DHT22;5671;47.936;8.716;2022-12-07T21:53:10;-2.60;87.00
11229;DHT22;5671;47.936;8.716;2022-12-07T21:55:40;-2.60;86.90
11229;DHT22;5671;47.936;8.716;2022-12-07T21:58:07;-2.60;86.70
11229;DHT22;5671;47.936;8.716;2022-12-07T22:00:34;-2.60;86.50
11229;DHT22;5671;47.936;8.716;2022-12-07T22:03:02;-2.60;86.40
11229;DHT22;5671;47.936;8.716;2022-12-07T22:05:29;-2.60;86.80
11229;DHT22;5671;47.936;8.716;2022-12-07T22:07:56;-2.60;87.00
11229;DHT22;5671;47.936;8.716;2022-12-07T22:10:22;-2.60;87.20
11229;DHT22;5671;47.936;8.716;2022-12-07T22:13:00;-2.60;87.10